メインページ
METAR-TAF:

METAR-TAF

空港 :

アシガバート空港

アシガバート, トルクメニスタン

緯度: 37-59N, 経度: 058-22E, 海抜: 211m

現時点の気象観測

当レポートは22分前の18:00(UTC)に作成
変向風 2kt
気温 7°C
湿度 61%
気圧 1032 hPa
視程10km以上
高度4100ftの曇り

METAR: UTAA 171800Z VRB02KT 9999 OVC041 07/00 Q1032 R88/CLRD70 NOSIG

時間: 23:22 (18:22 UTC)

予報

当レポートは1時間32分前の16:50(UTC)に作成
予報は17日の 18時(UTC)から 18日の 18時(UTC)まで有効
東/南東の風 12kt
視程: 6000m
高度1500ftの千切れ雲あり
高度3000ftの雲は散在している, 積乱雲.
17日の 18時(UTC)から 17日の 24時(UTC)まで一時的に
北/北東の風 12kt
18日の 00時(UTC)から 18日の 05時(UTC)まで一時的に
視程: 2000m
高度400ftの千切れ雲あり
小雨, 靄
18日の 06時(UTC)から 18日の 12時(UTC)まで一時的に
の風 16kt

TAF: UTAA 171650Z 1718/1818 12012KT 6000 BKN015 SCT030CB TEMPO 1718/1724 02012KT TEMPO 1800/1805 2000 -RA BR BKN004 TEMPO 1806/1812 09016KT

4,000以上の空港の気象観測と天気予報(METAR報とTAF報)

利用可能な観測所は地図上に黄色い丸と赤い丸で示す。

丸の上にカーソルを重ねると観測所名を参照できる。

次にクリックすると気象観測と天気予報を参照できる。

マップの切り替え:黒色「×」印の緑ボタンをクリックして拡大、「-」印の緑ボタンをクリックして縮小、緑色の三角印をクリックして隣りの地図に切り替え


METAR-TAF: